Terminal Aerodrome Forecast
Issued by NWS Lake Charles, LA

Home | Current Version | Previous Version | Text Only | Print | Product List | Glossary On
Versions: 1 2 3 4 5 6 7 8 9 10 11 12 13 14 15 16 17
673
FTUS44 KLCH 252330
TAFAEX
TAF
KAEX 252330Z 2600/2624 36005KT P6SM SKC
     FM260400 VRB03KT P6SM SKC
     FM261400 11008KT P6SM SKC
     FM261800 15010KT P6SM SCT040=

USA.gov is the U.S. government's official web portal to all federal, state and local government web resources and services.